Tucumcari ASC

Dec. 14, 2019, 4:40 p.m.

  • imperial
Air Temperature RH Dewpoint Wind Chill Heat Index Wind Speed Wind Direction Precipitation Solar Radiation Soil Temperature
Date Time Total Total
US/Mountain F % F F F MPH deg. in. MJ/m^2 F
2019-12-13 16:40 58.21 19.38 16.56 58.21 58.21 10.98 291.6 0.0 0.003 52.43
2019-12-13 16:45 57.16 20.2 16.65 57.16 57.16 10.63 301.3 0.0 0.002 52.32
2019-12-13 16:50 56.44 20.61 16.52 56.44 56.44 8.86 297.1 0.0 0.001 52.21
2019-12-13 16:55 56.32 20.75 16.57 56.32 56.32 9.04 288.9 0.0 0.001 52.11
2019-12-13 17:00 55.9 21.23 16.75 55.9 55.9 11.52 318.4 0.0 0.0 52.0
2019-12-13 17:05 55.47 21.64 16.83 55.47 55.47 10.09 309.4 0.0 0.0 51.87
2019-12-13 17:10 55.6 21.74 17.04 55.6 55.6 9.4 279.2 0.0 0.0 51.76
2019-12-13 17:15 55.49 21.71 16.92 55.49 55.49 11.88 306.9 0.0 0.0 51.66
2019-12-13 17:20 54.93 22.19 16.96 54.93 54.93 9.4 290.2 0.0 0.0 51.55
2019-12-13 17:25 54.14 23.21 17.33 54.14 54.14 8.68 304.3 0.0 0.0 51.42
2019-12-13 17:30 53.51 23.76 17.34 53.51 53.51 7.61 311.2 0.0 0.0 51.3
2019-12-13 17:35 53.02 24.48 17.62 53.02 53.02 6.71 317.9 0.0 0.0 51.21
2019-12-13 17:40 52.84 24.65 17.63 52.84 52.84 5.46 310.6 0.0 0.0 51.06
2019-12-13 17:45 53.15 24.51 17.75 53.15 53.15 6.71 302.3 0.0 0.0 50.97
2019-12-13 17:50 52.79 25.23 18.12 52.79 52.79 5.28 293.9 0.0 0.0 50.86
2019-12-13 17:55 52.93 24.86 17.9 52.93 52.93 9.22 277.7 0.0 0.0 50.76
2019-12-13 18:00 54.46 23.77 18.16 54.46 54.46 9.91 272.0 0.0 0.0 50.63
2019-12-13 18:05 54.97 23.01 17.83 54.97 54.97 8.86 297.2 0.0 0.0 50.5
2019-12-13 18:10 54.72 23.29 17.9 54.72 54.72 8.68 288.1 0.0 0.0 50.4
2019-12-13 18:15 54.41 23.9 18.24 54.41 54.41 8.68 281.3 0.0 0.0 50.32
2019-12-13 18:20 54.23 24.11 18.29 54.23 54.23 8.86 298.2 0.0 0.0 50.22
2019-12-13 18:25 54.41 23.9 18.24 54.41 54.41 10.09 298.3 0.0 0.0 50.14
2019-12-13 18:30 54.1 24.52 18.58 54.1 54.1 9.04 300.2 0.0 0.0 50.07
2019-12-13 18:35 53.11 25.54 18.68 53.11 53.11 7.96 314.9 0.0 0.0 50.0
2019-12-13 18:40 52.93 25.47 18.46 52.93 52.93 7.07 317.2 0.0 0.0 49.93
2019-12-13 18:45 52.81 25.78 18.64 52.81 52.81 6.17 282.1 0.0 0.0 49.86
2019-12-13 18:50 51.4 27.18 18.66 51.4 51.4 6.35 284.3 0.0 0.0 49.78
2019-12-13 18:55 51.84 26.43 18.38 51.84 51.84 9.91 300.2 0.0 0.0 49.71
2019-12-13 19:00 52.45 25.88 18.42 52.45 52.45 6.89 313.0 0.0 0.0 49.64
2019-12-13 19:05 51.94 26.23 18.3 51.94 51.94 6.53 317.7 0.0 0.0 49.55
2019-12-13 19:10 51.58 26.91 18.59 51.58 51.58 5.46 339.0 0.0 0.0 49.46
2019-12-13 19:15 50.97 27.39 18.47 50.97 50.97 6.89 324.7 0.0 0.0 49.39
2019-12-13 19:20 50.47 28.07 18.61 50.47 50.47 6.53 350.3 0.0 0.0 49.28
2019-12-13 19:25 50.47 28.21 18.72 50.47 50.47 6.89 333.8 0.0 0.0 49.21
2019-12-13 19:30 49.98 28.62 18.64 47.81 49.98 5.64 329.5 0.0 0.0 49.1
2019-12-13 19:35 49.98 28.75 18.75 48.33 49.98 4.74 331.0 0.0 0.0 48.99
2019-12-13 19:40 49.86 28.82 18.69 47.97 49.86 5.1 352.2 0.0 0.0 48.9
2019-12-13 19:45 50.97 27.83 18.84 50.97 50.97 10.09 328.5 0.0 0.0 48.79
2019-12-13 19:50 51.66 27.63 19.27 51.66 51.66 11.88 318.4 0.0 0.0 48.72
2019-12-13 19:55 52.09 27.39 19.43 52.09 52.09 13.13 319.1 0.0 0.0 48.61
2019-12-13 20:00 52.09 27.46 19.49 52.09 52.09 12.95 317.8 0.0 0.0 48.52
2019-12-13 20:05 51.35 28.14 19.43 51.35 51.35 10.98 312.3 0.0 0.0 48.45
2019-12-13 20:10 50.81 28.86 19.55 50.81 50.81 10.63 319.3 0.0 0.0 48.36
2019-12-13 20:15 50.38 29.44 19.64 50.38 50.38 10.8 312.8 0.0 0.0 48.29
2019-12-13 20:20 50.0 30.05 19.8 50.0 50.0 7.96 331.0 0.0 0.0 48.22
2019-12-13 20:25 48.9 31.32 19.81 45.73 48.9 7.25 350.3 0.0 0.0 48.15
2019-12-13 20:30 48.52 31.83 19.86 46.4 48.52 5.1 5.0 0.0 0.0 48.07
2019-12-13 20:35 47.79 32.72 19.85 44.38 47.79 7.25 324.8 0.0 0.0 48.0
2019-12-13 20:40 47.35 33.23 19.84 44.3 47.35 6.35 316.8 0.0 0.0 47.93
2019-12-13 20:45 46.31 34.7 19.93 43.79 46.31 5.1 339.3 0.0 0.0 47.86
2019-12-13 20:50 46.44 34.36 19.81 43.02 46.44 6.71 303.0 0.0 0.0 47.77
2019-12-13 20:55 46.69 34.19 19.92 44.01 46.69 5.46 317.6 0.0 0.0 47.71
2019-12-13 21:00 46.81 34.23 20.05 44.62 46.81 4.74 311.2 0.0 0.0 47.61
2019-12-13 21:05 46.69 34.43 20.08 44.86 46.69 4.21 295.9 0.0 0.0 47.52
2019-12-13 21:10 46.69 34.71 20.27 46.69 46.69 2.59 347.6 0.0 0.0 47.43
2019-12-13 21:15 46.76 34.19 19.98 46.76 46.76 1.7 1.2 0.0 0.0 47.35
2019-12-13 21:20 46.94 33.58 19.72 46.94 46.94 1.52 304.7 0.0 0.0 47.28
2019-12-13 21:25 47.07 33.24 19.59 47.07 47.07 2.59 30.6 0.0 0.0 47.23
2019-12-13 21:30 46.81 34.23 20.05 42.96 46.81 7.78 326.5 0.0 0.0 47.14
2019-12-13 21:35 47.68 33.54 20.34 46.43 47.68 3.67 3.3 0.0 0.0 47.08
2019-12-13 21:40 47.07 34.09 20.18 45.88 47.07 3.49 290.9 0.0 0.0 47.01
2019-12-13 21:45 46.45 35.63 20.68 43.63 46.45 5.64 31.0 0.0 0.0 46.94
2019-12-13 21:50 46.58 35.73 20.86 44.87 46.58 4.03 32.9 0.0 0.0 46.87
2019-12-13 21:55 46.33 36.0 20.81 44.05 46.33 4.74 14.9 0.0 0.0 46.8
2019-12-13 22:00 45.95 36.38 20.72 42.43 45.95 6.71 13.5 0.0 0.0 46.76
2019-12-13 22:05 45.41 37.03 20.65 42.18 45.41 6.0 2.5 0.0 0.0 46.69
2019-12-13 22:10 45.1 37.54 20.7 43.47 45.1 3.67 40.2 0.0 0.0 46.62
2019-12-13 22:15 44.6 37.98 20.53 41.11 44.6 6.17 11.2 0.0 0.0 46.56
2019-12-13 22:20 44.6 38.19 20.66 40.71 44.6 6.89 16.7 0.0 0.0 46.49
2019-12-13 22:25 44.37 38.87 20.86 40.93 44.37 6.0 1.5 0.0 0.0 46.42
2019-12-13 22:30 44.37 38.74 20.78 40.43 44.37 6.89 36.9 0.0 0.0 46.35
2019-12-13 22:35 44.49 38.54 20.77 39.98 44.49 8.12 14.6 0.0 0.0 46.27
2019-12-13 22:40 44.13 39.12 20.8 39.28 44.13 8.68 11.1 0.0 0.0 46.22
2019-12-13 22:45 44.24 38.98 20.82 39.59 44.24 8.3 14.8 0.0 0.0 46.13
2019-12-13 22:50 44.13 39.49 21.03 44.13 44.13 2.95 43.8 0.0 0.0 46.09
2019-12-13 22:55 43.39 41.0 21.25 42.04 43.39 3.13 70.2 0.0 0.0 46.02
2019-12-13 23:00 42.91 42.06 21.41 42.91 42.91 2.24 182.5 0.0 0.0 45.99
2019-12-13 23:05 42.42 43.33 21.67 39.77 42.42 4.38 46.8 0.0 0.0 45.93
2019-12-13 23:10 41.99 44.49 21.9 39.57 41.99 4.03 28.7 0.0 0.0 45.86
2019-12-13 23:15 42.04 44.83 22.13 38.65 42.04 5.28 38.8 0.0 0.0 45.79
2019-12-13 23:20 41.81 45.38 22.21 41.81 41.81 2.77 26.7 0.0 0.0 45.72
2019-12-13 23:25 40.44 47.84 22.21 37.46 40.44 4.38 320.9 0.0 0.0 45.66
2019-12-13 23:30 39.09 49.55 21.79 34.42 39.09 6.35 303.9 0.0 0.0 45.57
2019-12-13 23:35 39.09 50.13 22.07 35.03 39.09 5.46 322.7 0.0 0.0 45.5
2019-12-13 23:40 38.98 50.5 22.14 36.09 38.98 4.03 337.3 0.0 0.0 45.43
2019-12-13 23:45 39.04 50.3 22.1 39.04 39.04 2.95 8.6 0.0 0.0 45.36
2019-12-13 23:50 38.66 51.05 22.1 35.89 38.66 3.85 322.7 0.0 0.0 45.28
2019-12-13 23:55 38.73 51.32 22.29 35.16 38.73 4.74 353.1 0.0 0.0 45.19
2019-12-14 00:00 38.48 52.08 22.41 35.34 38.48 4.21 338.3 0.0 0.0 45.12
2019-12-14 00:05 38.12 52.96 22.47 34.6 38.12 4.56 316.2 0.0 0.0 45.05
2019-12-14 00:10 36.88 55.7 22.51 32.69 36.88 5.1 297.1 0.0 0.0 44.98
2019-12-14 00:15 36.95 55.15 22.34 34.11 36.95 3.67 309.2 0.0 0.0 44.92
2019-12-14 00:20 38.12 52.35 22.2 35.45 38.12 3.67 283.5 0.0 0.0 44.85
2019-12-14 00:25 38.73 50.37 21.85 38.73 38.73 1.52 339.2 0.0 0.0 44.78
2019-12-14 00:30 39.22 49.55 21.91 39.22 39.22 2.06 0.2 0.0 0.0 44.71
2019-12-14 00:35 39.72 49.55 22.38 39.72 39.72 2.24 109.1 0.0 0.0 44.62
2019-12-14 00:40 37.89 52.29 21.95 37.89 37.89 2.06 171.4 0.0 0.0 44.55
2019-12-14 00:45 37.38 53.55 22.05 37.38 37.38 1.88 240.4 0.0 0.0 44.49
2019-12-14 00:50 37.15 53.35 21.74 37.15 37.15 1.52 291.0 0.0 0.0 44.44
2019-12-14 00:55 37.76 52.7 22.02 37.76 37.76 1.16 26.8 0.0 0.0 44.38
2019-12-14 01:00 38.07 52.7 22.3 38.07 38.07 0.98 109.6 0.0 0.0 44.31
2019-12-14 01:05 38.75 51.61 22.44 38.75 38.75 1.88 157.7 0.0 0.0 44.24
2019-12-14 01:10 38.62 51.81 22.42 38.62 38.62 2.06 54.7 0.0 0.0 44.17
2019-12-14 01:15 38.25 52.7 22.47 38.25 38.25 2.06 65.4 0.0 0.0 44.13
2019-12-14 01:20 37.89 53.93 22.68 37.89 37.89 2.24 42.1 0.0 0.0 44.06
2019-12-14 01:25 37.51 54.96 22.78 37.51 37.51 0.98 334.8 0.0 0.0 43.99
2019-12-14 01:30 37.08 55.81 22.74 37.08 37.08 0.98 336.3 0.0 0.0 43.92
2019-12-14 01:35 36.41 57.14 22.68 36.41 36.41 1.7 16.8 0.0 0.0 43.84
2019-12-14 01:40 35.67 58.55 22.56 32.26 35.67 4.03 32.2 0.0 0.0 43.79
2019-12-14 01:45 35.55 59.27 22.73 31.94 35.55 4.21 44.8 0.0 0.0 43.7
2019-12-14 01:50 35.92 58.31 22.7 35.92 35.92 2.95 14.0 0.0 0.0 43.61
2019-12-14 01:55 35.19 60.37 22.83 30.7 35.19 5.1 37.9 0.0 0.0 43.54
2019-12-14 02:00 35.44 60.02 22.93 32.58 35.44 3.49 338.2 0.0 0.0 43.48
2019-12-14 02:05 35.49 60.02 22.98 31.7 35.49 4.38 24.3 0.0 0.0 43.41
2019-12-14 02:10 36.05 58.52 22.91 36.05 36.05 2.06 22.7 0.0 0.0 43.34
2019-12-14 02:15 35.19 60.02 22.69 35.19 35.19 2.42 49.9 0.0 0.0 43.27
2019-12-14 02:20 34.7 61.25 22.72 34.7 34.7 2.95 59.7 0.0 0.0 43.21
2019-12-14 02:25 34.88 60.64 22.65 34.88 34.88 0.81 2.8 0.0 0.0 43.14
2019-12-14 02:30 34.83 61.36 22.88 34.83 34.83 1.16 114.0 0.0 0.0 43.07
2019-12-14 02:35 34.7 61.36 22.76 34.7 34.7 2.42 126.9 0.0 0.0 43.0
2019-12-14 02:40 33.84 62.49 22.37 33.84 33.84 2.42 97.8 0.0 0.0 42.93
2019-12-14 02:45 32.97 64.67 22.37 32.97 32.97 1.7 63.9 0.0 0.0 42.85
2019-12-14 02:50 32.61 64.95 22.13 32.61 32.61 2.06 111.1 0.0 0.0 42.78
2019-12-14 02:55 31.75 66.59 21.89 31.75 31.75 0.0 127.1 0.0 0.0 42.71
2019-12-14 03:00 31.5 67.96 22.14 31.5 31.5 1.52 147.0 0.0 0.0 42.64
2019-12-14 03:05 31.19 68.65 22.08 31.19 31.19 1.34 188.5 0.0 0.0 42.55
2019-12-14 03:10 31.14 69.06 22.17 31.14 31.14 1.16 180.1 0.0 0.0 42.48
2019-12-14 03:15 31.03 69.48 22.21 31.03 31.03 1.34 231.3 0.0 0.0 42.4
2019-12-14 03:20 31.26 68.73 22.18 31.26 31.26 1.52 273.3 0.0 0.0 42.31
2019-12-14 03:25 31.33 68.8 22.27 31.33 31.33 2.06 296.5 0.0 0.0 42.22
2019-12-14 03:30 31.39 68.52 22.23 31.39 31.39 2.06 341.0 0.0 0.0 42.19
2019-12-14 03:35 32.56 66.58 22.66 32.56 32.56 0.81 150.8 0.0 0.0 42.1
2019-12-14 03:40 32.63 65.72 22.42 32.63 32.63 1.34 90.1 0.0 0.0 42.03
2019-12-14 03:45 32.25 65.86 22.11 32.25 32.25 2.24 99.8 0.0 0.0 41.94
2019-12-14 03:50 31.28 67.77 21.86 31.28 31.28 1.7 85.0 0.0 0.0 41.88
2019-12-14 03:55 31.03 69.38 22.18 31.03 31.03 2.06 110.9 0.0 0.0 41.79
2019-12-14 04:00 31.64 68.39 22.42 31.64 31.64 0.0 178.0 0.0 0.0 41.74
2019-12-14 04:05 32.2 66.68 22.36 32.2 32.2 2.42 340.6 0.0 0.0 41.67
2019-12-14 04:10 32.32 66.34 22.36 29.47 32.32 3.13 351.7 0.0 0.0 41.59
2019-12-14 04:15 32.88 64.83 22.34 32.88 32.88 1.88 323.9 0.0 0.0 41.52
2019-12-14 04:20 32.88 64.87 22.36 32.88 32.88 0.0 41.3 0.0 0.0 41.47
2019-12-14 04:25 32.99 63.94 22.12 32.99 32.99 0.0 89.9 0.0 0.0 41.4
2019-12-14 04:30 33.37 62.16 21.81 33.37 33.37 2.42 117.3 0.0 0.0 41.34
2019-12-14 04:35 33.62 60.93 21.57 33.62 33.62 2.95 124.2 0.0 0.0 41.29
2019-12-14 04:40 33.49 61.24 21.57 29.74 33.49 4.03 159.2 0.0 0.0 41.22
2019-12-14 04:45 33.19 61.28 21.3 33.19 33.19 2.77 87.5 0.0 0.0 41.14
2019-12-14 04:50 33.24 60.8 21.16 33.24 33.24 0.81 112.1 0.0 0.0 41.09
2019-12-14 04:55 33.37 60.39 21.12 33.37 33.37 1.7 128.9 0.0 0.0 41.04
2019-12-14 05:00 33.42 60.45 21.2 33.42 33.42 2.42 144.5 0.0 0.0 40.98
2019-12-14 05:05 33.12 61.34 21.25 33.12 33.12 2.06 167.1 0.0 0.0 40.93
2019-12-14 05:10 32.63 62.51 21.24 32.63 32.63 2.42 125.2 0.0 0.0 40.87
2019-12-14 05:15 32.45 63.05 21.27 32.45 32.45 2.24 167.7 0.0 0.0 40.82
2019-12-14 05:20 31.89 65.0 21.46 31.89 31.89 1.7 192.6 0.0 0.0 40.75
2019-12-14 05:25 31.15 66.54 21.31 31.15 31.15 0.81 252.0 0.0 0.0 40.71
2019-12-14 05:30 30.42 68.39 21.25 30.42 30.42 1.7 183.9 0.0 0.0 40.64
2019-12-14 05:35 30.29 68.8 21.27 30.29 30.29 1.34 135.4 0.0 0.0 40.6
2019-12-14 05:40 30.24 68.8 21.22 30.24 30.24 1.52 137.6 0.0 0.0 40.55
2019-12-14 05:45 29.8 69.76 21.13 29.8 29.8 1.88 139.0 0.0 0.0 40.48
2019-12-14 05:50 29.12 70.99 20.89 29.12 29.12 1.88 132.0 0.0 0.0 40.41
2019-12-14 05:55 28.94 72.42 21.18 28.94 28.94 1.34 128.3 0.0 0.0 40.35
2019-12-14 06:00 29.07 72.15 21.22 29.07 29.07 1.52 124.8 0.0 0.0 40.3
2019-12-14 06:05 29.17 72.01 21.27 29.17 29.17 0.98 132.5 0.0 0.0 40.23
2019-12-14 06:10 29.3 72.22 21.47 29.3 29.3 2.24 59.4 0.0 0.0 40.17
2019-12-14 06:15 29.19 72.29 21.38 24.18 29.19 4.56 52.9 0.0 0.0 40.12
2019-12-14 06:20 29.8 70.51 21.38 25.48 29.8 4.03 57.1 0.0 0.0 40.06
2019-12-14 06:25 29.8 70.72 21.45 25.9 29.8 3.67 49.5 0.0 0.0 39.99
2019-12-14 06:30 29.93 70.31 21.44 25.62 29.93 4.03 59.2 0.0 0.0 39.92
2019-12-14 06:35 29.93 70.45 21.49 26.76 29.93 3.13 81.3 0.0 0.0 39.87
2019-12-14 06:40 30.16 69.56 21.41 26.1 30.16 3.85 53.0 0.0 0.0 39.81
2019-12-14 06:45 30.42 68.32 21.23 27.31 30.42 3.13 57.0 0.0 0.0 39.74
2019-12-14 06:50 30.29 68.66 21.22 30.29 30.29 2.06 97.8 0.0 0.001 39.72
2019-12-14 06:55 29.8 69.69 21.11 29.8 29.8 0.81 101.4 0.0 0.001 39.67
2019-12-14 07:00 29.91 69.96 21.3 29.91 29.91 1.34 28.5 0.0 0.002 39.61
2019-12-14 07:05 29.17 72.18 21.33 25.65 29.17 3.31 322.9 0.0 0.004 39.58
2019-12-14 07:10 28.69 73.24 21.21 28.69 28.69 1.34 266.0 0.0 0.007 39.52
2019-12-14 07:15 28.81 73.48 21.4 28.81 28.81 0.0 213.2 0.0 0.01 39.47
2019-12-14 07:20 29.12 73.83 21.81 29.12 29.12 1.88 195.6 0.0 0.013 39.43
2019-12-14 07:25 29.8 73.86 22.48 29.8 29.8 0.98 163.5 0.0 0.017 39.4
2019-12-14 07:30 30.85 69.69 22.11 30.85 30.85 1.7 170.0 0.0 0.022 39.38
2019-12-14 07:35 31.59 69.35 22.7 31.59 31.59 1.88 234.5 0.0 0.027 39.36
2019-12-14 07:40 32.14 67.16 22.47 32.14 32.14 2.42 229.4 0.0 0.033 39.38
2019-12-14 07:45 31.89 67.71 22.43 31.89 31.89 2.95 217.6 0.0 0.039 39.4
2019-12-14 07:50 32.38 67.43 22.79 32.38 32.38 2.06 208.9 0.0 0.044 39.43
2019-12-14 07:55 33.62 63.84 22.68 33.62 33.62 0.0 271.6 0.0 0.047 39.52
2019-12-14 08:00 33.55 65.38 23.18 29.81 33.55 4.03 325.3 0.0 0.047 39.58
2019-12-14 08:05 33.67 65.07 23.18 28.06 33.67 6.17 324.9 0.0 0.053 39.67
2019-12-14 08:10 33.8 65.31 23.39 30.29 33.8 3.85 334.3 0.0 0.059 39.78
2019-12-14 08:15 34.11 63.63 23.06 29.92 34.11 4.56 338.4 0.0 0.064 39.88
2019-12-14 08:20 34.23 62.88 22.9 27.88 34.23 7.43 330.5 0.0 0.068 40.01
2019-12-14 08:25 34.9 61.48 22.99 31.37 34.9 4.03 347.1 0.0 0.072 40.1
2019-12-14 08:30 35.76 58.88 22.78 31.38 35.76 5.1 353.9 0.0 0.077 40.23
2019-12-14 08:35 36.43 58.87 23.4 33.71 36.43 3.49 304.1 0.0 0.081 40.32
2019-12-14 08:40 37.53 56.2 23.33 37.53 37.53 2.42 304.4 0.0 0.085 40.46
2019-12-14 08:45 38.7 54.42 23.66 38.7 38.7 2.06 43.1 0.0 0.089 40.57
2019-12-14 08:50 39.97 52.98 24.2 39.97 39.97 2.95 36.7 0.0 0.093 40.71
2019-12-14 08:55 40.96 50.1 23.79 40.96 40.96 1.52 347.5 0.0 0.097 40.87
2019-12-14 09:00 42.24 48.53 24.2 42.24 42.24 2.59 49.1 0.0 0.101 41.05
2019-12-14 09:05 42.91 47.29 24.2 42.91 42.91 1.34 308.5 0.0 0.105 41.29
2019-12-14 09:10 43.29 46.78 24.28 43.29 43.29 0.81 9.2 0.0 0.108 41.52
2019-12-14 09:15 44.94 44.42 24.56 44.94 44.94 0.98 27.3 0.0 0.112 41.76
2019-12-14 09:20 45.1 43.8 24.37 45.1 45.1 1.88 256.3 0.0 0.116 42.03
2019-12-14 09:25 45.16 46.39 25.8 43.23 45.16 4.03 316.9 0.0 0.119 42.31
2019-12-14 09:30 45.41 43.83 24.66 45.41 45.41 1.88 276.1 0.0 0.123 42.58
2019-12-14 09:35 45.72 43.96 25.01 44.67 45.72 3.13 46.5 0.0 0.126 42.85
2019-12-14 09:40 47.17 41.16 24.75 46.16 47.17 3.31 347.4 0.0 0.13 43.14
2019-12-14 09:45 46.74 41.46 24.54 45.84 46.74 3.13 130.9 0.0 0.133 43.45
2019-12-14 09:50 47.28 40.5 24.46 47.28 47.28 2.42 114.0 0.0 0.136 43.74
2019-12-14 09:55 48.02 40.3 25.01 48.02 48.02 2.42 114.9 0.0 0.139 44.01
2019-12-14 10:00 48.07 40.09 24.93 47.19 48.07 3.31 108.5 0.0 0.142 44.31
2019-12-14 10:05 48.38 39.82 25.05 46.34 48.38 4.92 174.1 0.0 0.145 44.6
2019-12-14 10:10 48.58 39.47 25.01 48.58 48.58 0.0 252.4 0.0 0.147 44.89
2019-12-14 10:15 50.05 37.77 25.28 50.05 50.05 2.24 160.6 0.0 0.15 45.19
2019-12-14 10:20 50.9 37.15 25.63 50.9 50.9 2.42 212.5 0.0 0.153 45.46
2019-12-14 10:25 50.59 37.22 25.41 50.59 50.59 3.67 164.5 0.0 0.155 45.77
2019-12-14 10:30 51.19 36.9 25.73 51.19 51.19 2.24 289.5 0.0 0.157 46.08
2019-12-14 10:35 50.58 37.24 25.4 50.58 50.58 1.52 298.0 0.0 0.158 46.36
2019-12-14 10:40 52.54 35.43 25.95 52.54 52.54 0.81 245.9 0.0 0.161 46.69
2019-12-14 10:45 50.68 37.72 25.81 50.68 50.68 3.49 303.7 0.0 0.163 46.96
2019-12-14 10:50 50.76 37.82 25.94 50.76 50.76 3.67 282.0 0.0 0.163 47.3
2019-12-14 10:55 51.67 37.38 26.47 51.67 51.67 3.31 300.1 0.0 0.165 47.59
2019-12-14 11:00 52.72 35.84 26.39 52.72 52.72 4.56 282.5 0.0 0.167 47.89
2019-12-14 11:05 51.98 36.35 26.07 51.98 51.98 2.24 329.8 0.0 0.168 48.2
2019-12-14 11:10 52.52 36.49 26.64 52.52 52.52 3.85 286.5 0.0 0.171 48.49
2019-12-14 11:15 52.39 36.11 26.28 52.39 52.39 2.95 293.8 0.0 0.168 48.79
2019-12-14 11:20 53.31 35.15 26.44 53.31 53.31 1.52 277.3 0.0 0.149 49.1
2019-12-14 11:25 53.62 34.88 26.53 53.62 53.62 4.21 286.7 0.0 0.163 49.39
2019-12-14 11:30 53.85 34.37 26.38 53.85 53.85 0.0 42.4 0.0 0.174 49.68
2019-12-14 11:35 54.66 33.37 26.38 54.66 54.66 3.67 251.8 0.0 0.175 49.95
2019-12-14 11:40 54.84 33.17 26.39 54.84 54.84 2.24 306.9 0.0 0.175 50.23
2019-12-14 11:45 55.81 32.59 26.82 55.81 55.81 1.34 39.3 0.0 0.176 50.5
2019-12-14 11:50 56.01 32.86 27.19 56.01 56.01 3.31 261.3 0.0 0.17 50.77
2019-12-14 11:55 55.71 33.34 27.28 55.71 55.71 4.92 292.0 0.0 0.176 51.04
2019-12-14 12:00 56.32 33.44 27.89 56.32 56.32 6.53 221.9 0.0 0.176 51.33
2019-12-14 12:05 57.36 32.21 27.89 57.36 57.36 7.61 254.2 0.0 0.176 51.58
2019-12-14 12:10 57.29 32.21 27.83 57.29 57.29 7.96 231.8 0.0 0.171 51.84
2019-12-14 12:15 58.15 32.08 28.49 58.15 58.15 4.38 288.8 0.0 0.166 52.09
2019-12-14 12:20 58.84 32.14 29.13 58.84 58.84 5.64 308.4 0.0 0.158 52.3
2019-12-14 12:25 60.3 31.19 29.67 60.3 60.3 12.24 254.3 0.0 0.15 52.54
2019-12-14 12:30 60.98 31.39 30.43 60.98 60.98 12.06 300.9 0.0 0.158 52.74
2019-12-14 12:35 61.34 30.92 30.37 61.34 61.34 11.52 249.3 0.0 0.171 52.93
2019-12-14 12:40 61.97 30.88 30.88 61.97 61.97 12.24 270.6 0.0 0.171 53.08
2019-12-14 12:45 62.2 30.54 30.82 62.2 62.2 10.09 252.4 0.0 0.169 53.26
2019-12-14 12:50 63.55 29.62 31.23 63.55 63.55 11.7 247.9 0.0 0.168 53.44
2019-12-14 12:55 63.19 29.35 30.69 63.19 63.19 6.35 223.2 0.0 0.166 53.6
2019-12-14 13:00 63.68 29.41 31.17 63.68 63.68 7.07 226.9 0.0 0.164 53.78
2019-12-14 13:05 63.86 28.77 30.78 63.86 63.86 5.82 218.4 0.0 0.161 53.92
2019-12-14 13:10 64.29 28.93 31.29 64.29 64.29 6.89 255.3 0.0 0.159 54.12
2019-12-14 13:15 64.53 28.18 30.84 64.53 64.53 10.8 256.7 0.0 0.157 54.27
2019-12-14 13:20 65.57 27.5 31.14 65.57 65.57 11.34 263.7 0.0 0.155 54.43
2019-12-14 13:25 65.57 27.16 30.83 65.57 65.57 13.49 274.9 0.0 0.153 54.57
2019-12-14 13:30 65.75 26.1 30.0 65.75 65.75 18.14 236.4 0.0 0.15 54.72
2019-12-14 13:35 66.31 25.86 30.25 66.31 66.31 19.93 245.5 0.0 0.148 54.86
2019-12-14 13:40 66.61 25.52 30.19 66.61 66.61 22.97 259.7 0.0 0.145 54.97
2019-12-14 13:45 65.75 25.96 29.87 65.75 65.75 18.5 297.2 0.0 0.143 55.08
2019-12-14 13:50 66.24 25.45 29.8 66.24 66.24 19.04 273.5 0.0 0.14 55.15
2019-12-14 13:55 66.54 25.52 30.12 66.54 66.54 14.38 258.0 0.0 0.137 55.2
2019-12-14 14:00 66.6 25.52 30.17 66.6 66.6 13.49 279.1 0.0 0.134 55.26
2019-12-14 14:05 66.24 25.38 29.73 66.24 66.24 19.39 231.4 0.0 0.13 55.31
2019-12-14 14:10 65.86 25.96 29.96 65.86 65.86 17.96 277.9 0.0 0.127 55.33
2019-12-14 14:15 66.34 25.93 30.35 66.34 66.34 19.04 272.4 0.0 0.123 55.36
2019-12-14 14:20 66.24 25.72 30.06 66.24 66.24 16.71 265.6 0.0 0.12 55.38
2019-12-14 14:25 65.73 26.34 30.21 65.73 65.73 13.67 262.5 0.0 0.116 55.38
2019-12-14 14:30 66.42 25.82 30.3 66.42 66.42 16.71 263.9 0.0 0.112 55.4
2019-12-14 14:35 65.68 26.37 30.19 65.68 65.68 17.07 277.9 0.0 0.108 55.38
2019-12-14 14:40 66.11 26.1 30.31 66.11 66.11 18.32 262.1 0.0 0.104 55.38
2019-12-14 14:45 65.5 26.34 30.01 65.5 65.5 19.57 260.5 0.0 0.1 55.36
2019-12-14 14:50 65.43 26.47 30.07 65.43 65.43 22.08 258.0 0.0 0.096 55.35
2019-12-14 14:55 65.5 26.58 30.23 65.5 65.5 14.92 260.3 0.0 0.092 55.31
2019-12-14 15:00 65.25 27.02 30.42 65.25 65.25 16.17 272.1 0.0 0.088 55.27
2019-12-14 15:05 64.83 27.33 30.35 64.83 64.83 21.54 253.7 0.0 0.083 55.22
2019-12-14 15:10 64.89 27.12 30.21 64.89 64.89 21.01 276.4 0.0 0.079 55.18
2019-12-14 15:15 65.07 27.02 30.27 65.07 65.07 18.5 253.9 0.0 0.075 55.13
2019-12-14 15:20 64.96 27.12 30.27 64.96 64.96 20.65 240.3 0.0 0.071 55.08
2019-12-14 15:25 64.53 27.16 29.93 64.53 64.53 19.75 242.5 0.0 0.066 55.02
2019-12-14 15:30 64.71 27.23 30.15 64.71 64.71 13.85 264.6 0.0 0.062 54.97
2019-12-14 15:35 64.35 27.36 29.96 64.35 64.35 18.5 248.7 0.0 0.057 54.9
2019-12-14 15:40 64.04 27.91 30.18 64.04 64.04 18.32 258.3 0.0 0.053 54.82
2019-12-14 15:45 63.91 28.11 30.25 63.91 63.91 21.01 264.4 0.0 0.049 54.77
2019-12-14 15:50 63.73 28.63 30.55 63.73 63.73 16.71 241.7 0.0 0.044 54.7
2019-12-14 15:55 63.61 28.83 30.61 63.61 63.61 12.77 258.4 0.0 0.04 54.63
2019-12-14 16:00 63.25 29.45 30.82 63.25 63.25 12.24 255.9 0.0 0.035 54.57
2019-12-14 16:05 63.07 29.72 30.89 63.07 63.07 14.56 259.6 0.0 0.03 54.5
2019-12-14 16:10 62.64 30.1 30.83 62.64 62.64 13.13 271.3 0.0 0.024 54.43
2019-12-14 16:15 62.38 30.51 30.95 62.38 62.38 10.8 260.6 0.0 0.019 54.36
2019-12-14 16:20 62.15 30.88 31.04 62.15 62.15 12.24 264.2 0.0 0.015 54.28
2019-12-14 16:25 61.59 31.39 30.96 61.59 61.59 8.48 246.5 0.0 0.011 54.19
2019-12-14 16:30 60.8 32.14 30.85 60.8 60.8 8.48 260.3 0.0 0.008 54.12
2019-12-14 16:35 60.3 32.69 30.83 60.3 60.3 6.35 268.6 0.0 0.004 54.05
2019-12-14 16:40 59.25 33.85 30.77 59.25 59.25 6.35 252.1 0.0 0.002 53.94

Data is courtesy of the NM Climate Center. DO NOT USE IN LEGAL PROCEEDINGS.